sensor_id;sensor_type;location;lat;lon;timestamp;temperature;humidity
16846;DHT22;8539;53.188;8.696;2023-07-31T00:02:25;16.10;99.90
16846;DHT22;8539;53.188;8.696;2023-07-31T00:04:51;16.10;99.90
16846;DHT22;8539;53.188;8.696;2023-07-31T00:07:18;16.20;99.90
16846;DHT22;8539;53.188;8.696;2023-07-31T00:09:45;16.20;99.90
16846;DHT22;8539;53.188;8.696;2023-07-31T00:12:12;16.20;99.90
16846;DHT22;8539;53.188;8.696;2023-07-31T00:14:38;16.20;99.90
16846;DHT22;8539;53.188;8.696;2023-07-31T00:17:05;16.20;99.90
16846;DHT22;8539;53.188;8.696;2023-07-31T00:19:31;16.20;99.90
16846;DHT22;8539;53.188;8.696;2023-07-31T00:21:59;16.20;99.90
16846;DHT22;8539;53.188;8.696;2023-07-31T00:24:31;16.20;99.90
16846;DHT22;8539;53.188;8.696;2023-07-31T00:26:57;16.20;99.90
16846;DHT22;8539;53.188;8.696;2023-07-31T00:29:23;16.20;99.90
16846;DHT22;8539;53.188;8.696;2023-07-31T00:31:50;16.20;99.90
16846;DHT22;8539;53.188;8.696;2023-07-31T00:34:16;16.20;99.90
16846;DHT22;8539;53.188;8.696;2023-07-31T00:36:42;16.20;99.90
16846;DHT22;8539;53.188;8.696;2023-07-31T00:39:08;16.20;99.90
16846;DHT22;8539;53.188;8.696;2023-07-31T00:41:34;16.20;99.90
16846;DHT22;8539;53.188;8.696;2023-07-31T00:44:00;16.20;99.90
16846;DHT22;8539;53.188;8.696;2023-07-31T00:46:26;16.20;99.90
16846;DHT22;8539;53.188;8.696;2023-07-31T00:48:52;16.20;99.90
16846;DHT22;8539;53.188;8.696;2023-07-31T00:51:18;16.20;99.90
16846;DHT22;8539;53.188;8.696;2023-07-31T00:53:45;16.20;99.90
16846;DHT22;8539;53.188;8.696;2023-07-31T00:56:12;16.20;99.90
16846;DHT22;8539;53.188;8.696;2023-07-31T00:58:39;16.20;99.90
16846;DHT22;8539;53.188;8.696;2023-07-31T01:01:05;16.20;99.90
16846;DHT22;8539;53.188;8.696;2023-07-31T01:03:32;16.10;99.90
16846;DHT22;8539;53.188;8.696;2023-07-31T01:06:33;16.20;99.90
16846;DHT22;8539;53.188;8.696;2023-07-31T01:09:25;16.20;99.90
16846;DHT22;8539;53.188;8.696;2023-07-31T01:11:57;16.10;99.90
16846;DHT22;8539;53.188;8.696;2023-07-31T01:14:25;16.10;99.90
16846;DHT22;8539;53.188;8.696;2023-07-31T01:16:51;16.10;99.90
16846;DHT22;8539;53.188;8.696;2023-07-31T01:19:23;16.10;99.90
16846;DHT22;8539;53.188;8.696;2023-07-31T01:22:16;16.10;99.90
16846;DHT22;8539;53.188;8.696;2023-07-31T01:25:21;16.10;99.90
16846;DHT22;8539;53.188;8.696;2023-07-31T01:28:03;16.10;99.90
16846;DHT22;8539;53.188;8.696;2023-07-31T01:30:33;16.10;99.90
16846;DHT22;8539;53.188;8.696;2023-07-31T01:33:02;16.10;99.90
16846;DHT22;8539;53.188;8.696;2023-07-31T01:35:34;16.10;99.90
16846;DHT22;8539;53.188;8.696;2023-07-31T01:38:00;16.10;99.90
16846;DHT22;8539;53.188;8.696;2023-07-31T01:40:26;16.10;99.90
16846;DHT22;8539;53.188;8.696;2023-07-31T01:42:52;16.10;99.90
16846;DHT22;8539;53.188;8.696;2023-07-31T01:45:18;16.10;99.90
16846;DHT22;8539;53.188;8.696;2023-07-31T01:47:44;16.10;99.90
16846;DHT22;8539;53.188;8.696;2023-07-31T01:50:11;16.10;99.90
16846;DHT22;8539;53.188;8.696;2023-07-31T01:52:37;16.10;99.90
16846;DHT22;8539;53.188;8.696;2023-07-31T01:55:04;16.10;99.90
16846;DHT22;8539;53.188;8.696;2023-07-31T01:57:30;16.10;99.90
16846;DHT22;8539;53.188;8.696;2023-07-31T01:59:56;16.00;99.90
16846;DHT22;8539;53.188;8.696;2023-07-31T02:02:22;16.00;99.90
16846;DHT22;8539;53.188;8.696;2023-07-31T02:04:52;16.00;99.90
16846;DHT22;8539;53.188;8.696;2023-07-31T02:07:18;16.00;99.90
16846;DHT22;8539;53.188;8.696;2023-07-31T02:09:44;16.00;99.90
16846;DHT22;8539;53.188;8.696;2023-07-31T02:12:11;16.00;99.90
16846;DHT22;8539;53.188;8.696;2023-07-31T02:14:37;16.00;99.90
16846;DHT22;8539;53.188;8.696;2023-07-31T02:17:04;15.90;99.90
16846;DHT22;8539;53.188;8.696;2023-07-31T02:19:30;15.90;99.90
16846;DHT22;8539;53.188;8.696;2023-07-31T02:21:56;15.80;99.90
16846;DHT22;8539;53.188;8.696;2023-07-31T02:24:22;15.80;99.90
16846;DHT22;8539;53.188;8.696;2023-07-31T02:26:49;15.80;99.90
16846;DHT22;8539;53.188;8.696;2023-07-31T02:29:15;15.70;99.90
16846;DHT22;8539;53.188;8.696;2023-07-31T02:31:41;15.70;99.90
16846;DHT22;8539;53.188;8.696;2023-07-31T02:34:07;15.70;99.90
16846;DHT22;8539;53.188;8.696;2023-07-31T02:36:33;15.60;99.90
16846;DHT22;8539;53.188;8.696;2023-07-31T02:38:59;15.60;99.90
16846;DHT22;8539;53.188;8.696;2023-07-31T02:41:25;15.50;99.90
16846;DHT22;8539;53.188;8.696;2023-07-31T02:43:51;15.50;99.90
16846;DHT22;8539;53.188;8.696;2023-07-31T02:46:19;15.50;99.90
16846;DHT22;8539;53.188;8.696;2023-07-31T02:48:45;15.40;99.90
16846;DHT22;8539;53.188;8.696;2023-07-31T02:51:11;15.40;99.90
16846;DHT22;8539;53.188;8.696;2023-07-31T02:53:38;15.40;99.90
16846;DHT22;8539;53.188;8.696;2023-07-31T02:56:04;15.40;99.90
16846;DHT22;8539;53.188;8.696;2023-07-31T02:58:30;15.30;99.90
16846;DHT22;8539;53.188;8.696;2023-07-31T03:00:58;15.30;99.90
16846;DHT22;8539;53.188;8.696;2023-07-31T03:03:24;15.30;99.90
16846;DHT22;8539;53.188;8.696;2023-07-31T03:05:50;15.30;99.90
16846;DHT22;8539;53.188;8.696;2023-07-31T03:08:16;15.30;99.90
16846;DHT22;8539;53.188;8.696;2023-07-31T03:10:42;15.20;99.90
16846;DHT22;8539;53.188;8.696;2023-07-31T03:13:08;15.30;99.90
16846;DHT22;8539;53.188;8.696;2023-07-31T03:15:34;15.30;99.90
16846;DHT22;8539;53.188;8.696;2023-07-31T03:18:00;15.20;99.90
16846;DHT22;8539;53.188;8.696;2023-07-31T03:20:26;15.30;99.90
16846;DHT22;8539;53.188;8.696;2023-07-31T03:22:52;15.30;99.90
16846;DHT22;8539;53.188;8.696;2023-07-31T03:25:18;15.20;99.90
16846;DHT22;8539;53.188;8.696;2023-07-31T03:27:44;15.30;99.90
16846;DHT22;8539;53.188;8.696;2023-07-31T03:30:10;15.30;99.90
16846;DHT22;8539;53.188;8.696;2023-07-31T03:32:36;15.20;99.90
16846;DHT22;8539;53.188;8.696;2023-07-31T03:35:03;15.20;99.90
16846;DHT22;8539;53.188;8.696;2023-07-31T03:37:31;15.20;99.90
16846;DHT22;8539;53.188;8.696;2023-07-31T03:39:57;15.20;99.90
16846;DHT22;8539;53.188;8.696;2023-07-31T03:42:23;15.20;99.90
16846;DHT22;8539;53.188;8.696;2023-07-31T03:44:49;15.30;99.90
16846;DHT22;8539;53.188;8.696;2023-07-31T03:47:15;15.30;99.90
16846;DHT22;8539;53.188;8.696;2023-07-31T03:49:42;15.20;99.90
16846;DHT22;8539;53.188;8.696;2023-07-31T03:52:08;15.30;99.90
16846;DHT22;8539;53.188;8.696;2023-07-31T03:54:34;15.30;99.90
16846;DHT22;8539;53.188;8.696;2023-07-31T03:57:00;15.30;99.90
16846;DHT22;8539;53.188;8.696;2023-07-31T03:59:26;15.20;99.90
16846;DHT22;8539;53.188;8.696;2023-07-31T04:01:52;15.30;99.90
16846;DHT22;8539;53.188;8.696;2023-07-31T04:04:18;15.30;99.90
16846;DHT22;8539;53.188;8.696;2023-07-31T04:06:44;15.20;99.90
16846;DHT22;8539;53.188;8.696;2023-07-31T04:09:11;15.20;99.90
16846;DHT22;8539;53.188;8.696;2023-07-31T04:11:37;15.20;99.90
16846;DHT22;8539;53.188;8.696;2023-07-31T04:14:04;15.30;99.90
16846;DHT22;8539;53.188;8.696;2023-07-31T04:16:30;15.30;99.90
16846;DHT22;8539;53.188;8.696;2023-07-31T04:18:57;15.20;99.90
16846;DHT22;8539;53.188;8.696;2023-07-31T04:21:23;15.10;99.90
16846;DHT22;8539;53.188;8.696;2023-07-31T04:23:49;15.10;99.90
16846;DHT22;8539;53.188;8.696;2023-07-31T04:26:15;15.00;99.90
16846;DHT22;8539;53.188;8.696;2023-07-31T04:28:41;15.00;99.90
16846;DHT22;8539;53.188;8.696;2023-07-31T04:31:07;15.00;99.90
16846;DHT22;8539;53.188;8.696;2023-07-31T04:33:33;15.00;99.90
16846;DHT22;8539;53.188;8.696;2023-07-31T04:35:59;15.00;99.90
16846;DHT22;8539;53.188;8.696;2023-07-31T04:38:25;15.00;99.90
16846;DHT22;8539;53.188;8.696;2023-07-31T04:40:51;14.90;99.90
16846;DHT22;8539;53.188;8.696;2023-07-31T04:43:17;15.00;99.90
16846;DHT22;8539;53.188;8.696;2023-07-31T04:45:47;15.00;99.90
16846;DHT22;8539;53.188;8.696;2023-07-31T04:48:14;15.00;99.90
16846;DHT22;8539;53.188;8.696;2023-07-31T04:50:40;15.00;99.90
16846;DHT22;8539;53.188;8.696;2023-07-31T04:53:06;15.00;99.90
16846;DHT22;8539;53.188;8.696;2023-07-31T04:55:32;15.00;99.90
16846;DHT22;8539;53.188;8.696;2023-07-31T04:57:59;15.00;99.90
16846;DHT22;8539;53.188;8.696;2023-07-31T05:00:25;15.00;99.90
16846;DHT22;8539;53.188;8.696;2023-07-31T05:02:52;15.00;99.90
16846;DHT22;8539;53.188;8.696;2023-07-31T05:05:18;15.00;99.90
16846;DHT22;8539;53.188;8.696;2023-07-31T05:07:46;15.00;99.90
16846;DHT22;8539;53.188;8.696;2023-07-31T05:10:12;15.00;99.90
16846;DHT22;8539;53.188;8.696;2023-07-31T05:12:38;15.00;99.90
16846;DHT22;8539;53.188;8.696;2023-07-31T05:15:04;15.10;99.90
16846;DHT22;8539;53.188;8.696;2023-07-31T05:17:31;15.10;99.90
16846;DHT22;8539;53.188;8.696;2023-07-31T05:19:57;15.10;99.90
16846;DHT22;8539;53.188;8.696;2023-07-31T05:22:23;15.10;99.90
16846;DHT22;8539;53.188;8.696;2023-07-31T05:24:49;15.10;99.90
16846;DHT22;8539;53.188;8.696;2023-07-31T05:27:15;15.10;99.90
16846;DHT22;8539;53.188;8.696;2023-07-31T05:29:44;15.10;99.90
16846;DHT22;8539;53.188;8.696;2023-07-31T05:32:11;15.10;99.90
16846;DHT22;8539;53.188;8.696;2023-07-31T05:34:37;15.10;99.90
16846;DHT22;8539;53.188;8.696;2023-07-31T05:37:04;15.10;99.90
16846;DHT22;8539;53.188;8.696;2023-07-31T05:39:30;15.10;99.90
16846;DHT22;8539;53.188;8.696;2023-07-31T05:41:56;15.10;99.90
16846;DHT22;8539;53.188;8.696;2023-07-31T05:44:22;15.10;99.90
16846;DHT22;8539;53.188;8.696;2023-07-31T05:46:48;15.10;99.90
16846;DHT22;8539;53.188;8.696;2023-07-31T05:49:14;15.10;99.90
16846;DHT22;8539;53.188;8.696;2023-07-31T05:51:40;15.10;99.90
16846;DHT22;8539;53.188;8.696;2023-07-31T05:54:07;15.20;99.90
16846;DHT22;8539;53.188;8.696;2023-07-31T05:56:33;15.20;99.90
16846;DHT22;8539;53.188;8.696;2023-07-31T05:58:59;15.30;99.90
16846;DHT22;8539;53.188;8.696;2023-07-31T06:01:25;15.30;99.90
16846;DHT22;8539;53.188;8.696;2023-07-31T06:03:52;15.40;99.90
16846;DHT22;8539;53.188;8.696;2023-07-31T06:06:18;15.30;99.90
16846;DHT22;8539;53.188;8.696;2023-07-31T06:08:44;15.40;99.90
16846;DHT22;8539;53.188;8.696;2023-07-31T06:11:10;15.30;99.90
16846;DHT22;8539;53.188;8.696;2023-07-31T06:13:36;15.40;99.90
16846;DHT22;8539;53.188;8.696;2023-07-31T06:16:02;15.40;99.90
16846;DHT22;8539;53.188;8.696;2023-07-31T06:18:32;15.40;99.90
16846;DHT22;8539;53.188;8.696;2023-07-31T06:20:58;15.40;99.90
16846;DHT22;8539;53.188;8.696;2023-07-31T06:23:24;15.40;99.90
16846;DHT22;8539;53.188;8.696;2023-07-31T06:25:50;15.40;99.90
16846;DHT22;8539;53.188;8.696;2023-07-31T06:28:17;15.40;99.90
16846;DHT22;8539;53.188;8.696;2023-07-31T06:30:43;15.40;99.90
16846;DHT22;8539;53.188;8.696;2023-07-31T06:33:12;15.40;99.90
16846;DHT22;8539;53.188;8.696;2023-07-31T06:35:38;15.50;99.90
16846;DHT22;8539;53.188;8.696;2023-07-31T06:38:04;15.50;99.90
16846;DHT22;8539;53.188;8.696;2023-07-31T06:40:30;15.50;99.90
16846;DHT22;8539;53.188;8.696;2023-07-31T06:42:56;15.50;99.90
16846;DHT22;8539;53.188;8.696;2023-07-31T06:45:22;15.50;99.90
16846;DHT22;8539;53.188;8.696;2023-07-31T06:47:52;15.50;99.90
16846;DHT22;8539;53.188;8.696;2023-07-31T06:50:20;15.60;99.90
16846;DHT22;8539;53.188;8.696;2023-07-31T06:52:46;15.60;99.90
16846;DHT22;8539;53.188;8.696;2023-07-31T06:55:18;15.60;99.90
16846;DHT22;8539;53.188;8.696;2023-07-31T06:57:45;15.60;99.90
16846;DHT22;8539;53.188;8.696;2023-07-31T07:00:11;15.60;99.90
16846;DHT22;8539;53.188;8.696;2023-07-31T07:02:41;15.60;99.90
16846;DHT22;8539;53.188;8.696;2023-07-31T07:05:08;15.70;99.90
16846;DHT22;8539;53.188;8.696;2023-07-31T07:07:35;15.70;99.90
16846;DHT22;8539;53.188;8.696;2023-07-31T07:10:01;15.70;99.90
16846;DHT22;8539;53.188;8.696;2023-07-31T07:12:29;15.70;99.90
16846;DHT22;8539;53.188;8.696;2023-07-31T07:14:56;15.70;99.90
16846;DHT22;8539;53.188;8.696;2023-07-31T07:17:24;15.70;99.90
16846;DHT22;8539;53.188;8.696;2023-07-31T07:19:50;15.70;99.90
16846;DHT22;8539;53.188;8.696;2023-07-31T07:22:16;15.70;99.90
16846;DHT22;8539;53.188;8.696;2023-07-31T07:24:42;15.80;99.90
16846;DHT22;8539;53.188;8.696;2023-07-31T07:27:08;15.80;99.90
16846;DHT22;8539;53.188;8.696;2023-07-31T07:29:34;15.80;99.90
16846;DHT22;8539;53.188;8.696;2023-07-31T07:32:01;15.80;99.90
16846;DHT22;8539;53.188;8.696;2023-07-31T07:34:28;15.80;99.90
16846;DHT22;8539;53.188;8.696;2023-07-31T07:36:54;15.80;99.90
16846;DHT22;8539;53.188;8.696;2023-07-31T07:39:21;15.80;99.90
16846;DHT22;8539;53.188;8.696;2023-07-31T07:41:47;15.90;99.90
16846;DHT22;8539;53.188;8.696;2023-07-31T07:44:14;15.90;99.90
16846;DHT22;8539;53.188;8.696;2023-07-31T07:46:41;15.90;99.90
16846;DHT22;8539;53.188;8.696;2023-07-31T07:49:07;15.90;99.90
16846;DHT22;8539;53.188;8.696;2023-07-31T07:51:33;15.90;99.90
16846;DHT22;8539;53.188;8.696;2023-07-31T07:53:59;15.90;99.90
16846;DHT22;8539;53.188;8.696;2023-07-31T07:56:26;16.00;99.90
16846;DHT22;8539;53.188;8.696;2023-07-31T07:58:54;15.90;99.90
16846;DHT22;8539;53.188;8.696;2023-07-31T08:01:20;16.00;99.90
16846;DHT22;8539;53.188;8.696;2023-07-31T08:03:47;16.10;99.90
16846;DHT22;8539;53.188;8.696;2023-07-31T08:06:14;16.10;99.90
16846;DHT22;8539;53.188;8.696;2023-07-31T08:08:40;16.10;99.90
16846;DHT22;8539;53.188;8.696;2023-07-31T08:11:06;16.20;99.90
16846;DHT22;8539;53.188;8.696;2023-07-31T08:13:32;16.20;99.90
16846;DHT22;8539;53.188;8.696;2023-07-31T08:15:59;16.20;99.90
16846;DHT22;8539;53.188;8.696;2023-07-31T08:18:25;16.20;99.90
16846;DHT22;8539;53.188;8.696;2023-07-31T08:20:51;16.30;99.90
16846;DHT22;8539;53.188;8.696;2023-07-31T08:23:17;16.20;99.90
16846;DHT22;8539;53.188;8.696;2023-07-31T08:25:43;16.20;99.90
16846;DHT22;8539;53.188;8.696;2023-07-31T08:28:09;16.30;99.90
16846;DHT22;8539;53.188;8.696;2023-07-31T08:30:35;16.30;99.90
16846;DHT22;8539;53.188;8.696;2023-07-31T08:33:01;16.30;99.90
16846;DHT22;8539;53.188;8.696;2023-07-31T08:35:27;16.30;99.90
16846;DHT22;8539;53.188;8.696;2023-07-31T08:37:56;16.40;99.90
16846;DHT22;8539;53.188;8.696;2023-07-31T08:40:22;16.50;99.90
16846;DHT22;8539;53.188;8.696;2023-07-31T08:42:54;16.50;99.90
16846;DHT22;8539;53.188;8.696;2023-07-31T08:45:22;16.50;99.90
16846;DHT22;8539;53.188;8.696;2023-07-31T08:47:50;16.60;99.90
16846;DHT22;8539;53.188;8.696;2023-07-31T08:50:19;16.60;99.90
16846;DHT22;8539;53.188;8.696;2023-07-31T08:52:47;16.50;99.90
16846;DHT22;8539;53.188;8.696;2023-07-31T08:55:13;16.60;99.90
16846;DHT22;8539;53.188;8.696;2023-07-31T08:57:41;16.60;99.90
16846;DHT22;8539;53.188;8.696;2023-07-31T09:00:10;16.60;99.90
16846;DHT22;8539;53.188;8.696;2023-07-31T09:02:46;16.60;99.90
16846;DHT22;8539;53.188;8.696;2023-07-31T09:05:16;16.60;99.90
16846;DHT22;8539;53.188;8.696;2023-07-31T09:07:46;16.70;99.90
16846;DHT22;8539;53.188;8.696;2023-07-31T09:10:13;16.70;99.90
16846;DHT22;8539;53.188;8.696;2023-07-31T09:12:41;16.70;99.90
16846;DHT22;8539;53.188;8.696;2023-07-31T09:15:14;16.70;99.90
16846;DHT22;8539;53.188;8.696;2023-07-31T09:21:56;16.70;99.90
16846;DHT22;8539;53.188;8.696;2023-07-31T09:24:34;16.60;99.90
16846;DHT22;8539;53.188;8.696;2023-07-31T09:27:15;16.70;99.90
16846;DHT22;8539;53.188;8.696;2023-07-31T09:29:59;16.60;99.90
16846;DHT22;8539;53.188;8.696;2023-07-31T09:32:47;16.60;99.90
16846;DHT22;8539;53.188;8.696;2023-07-31T09:35:31;16.60;99.90
16846;DHT22;8539;53.188;8.696;2023-07-31T09:38:05;16.60;99.90
16846;DHT22;8539;53.188;8.696;2023-07-31T09:40:33;16.60;99.90
16846;DHT22;8539;53.188;8.696;2023-07-31T09:43:03;16.60;99.90
16846;DHT22;8539;53.188;8.696;2023-07-31T09:45:33;16.60;99.90
16846;DHT22;8539;53.188;8.696;2023-07-31T09:48:18;16.60;99.90
16846;DHT22;8539;53.188;8.696;2023-07-31T09:50:46;16.60;99.90
16846;DHT22;8539;53.188;8.696;2023-07-31T09:53:13;16.70;99.90
16846;DHT22;8539;53.188;8.696;2023-07-31T09:55:42;16.70;99.90
16846;DHT22;8539;53.188;8.696;2023-07-31T09:58:12;16.70;99.90
16846;DHT22;8539;53.188;8.696;2023-07-31T10:00:42;16.80;99.90
16846;DHT22;8539;53.188;8.696;2023-07-31T10:03:09;16.80;99.90
16846;DHT22;8539;53.188;8.696;2023-07-31T10:05:38;16.80;99.90
16846;DHT22;8539;53.188;8.696;2023-07-31T10:08:07;16.90;99.90
16846;DHT22;8539;53.188;8.696;2023-07-31T10:10:36;16.90;99.90
16846;DHT22;8539;53.188;8.696;2023-07-31T10:13:05;16.90;99.90
16846;DHT22;8539;53.188;8.696;2023-07-31T10:15:32;17.00;99.90
16846;DHT22;8539;53.188;8.696;2023-07-31T10:17:59;17.00;99.90
16846;DHT22;8539;53.188;8.696;2023-07-31T10:20:26;17.00;99.90
16846;DHT22;8539;53.188;8.696;2023-07-31T10:22:54;17.00;99.90
16846;DHT22;8539;53.188;8.696;2023-07-31T10:25:22;17.00;99.90
16846;DHT22;8539;53.188;8.696;2023-07-31T10:27:49;17.00;99.90
16846;DHT22;8539;53.188;8.696;2023-07-31T10:30:29;17.00;99.90
16846;DHT22;8539;53.188;8.696;2023-07-31T10:32:57;17.00;99.90
16846;DHT22;8539;53.188;8.696;2023-07-31T10:35:23;17.00;99.90
16846;DHT22;8539;53.188;8.696;2023-07-31T10:37:49;17.00;99.90
16846;DHT22;8539;53.188;8.696;2023-07-31T10:40:17;17.00;99.90
16846;DHT22;8539;53.188;8.696;2023-07-31T10:42:56;17.10;99.90
16846;DHT22;8539;53.188;8.696;2023-07-31T10:48:00;17.10;99.90
16846;DHT22;8539;53.188;8.696;2023-07-31T10:50:27;17.10;99.90
16846;DHT22;8539;53.188;8.696;2023-07-31T10:52:55;17.20;99.90
16846;DHT22;8539;53.188;8.696;2023-07-31T10:55:33;17.20;99.90
16846;DHT22;8539;53.188;8.696;2023-07-31T10:58:12;17.20;99.90
16846;DHT22;8539;53.188;8.696;2023-07-31T11:00:42;17.20;99.90
16846;DHT22;8539;53.188;8.696;2023-07-31T11:03:19;17.20;99.90
16846;DHT22;8539;53.188;8.696;2023-07-31T11:08:55;17.40;99.90
16846;DHT22;8539;53.188;8.696;2023-07-31T11:11:21;17.40;99.90
16846;DHT22;8539;53.188;8.696;2023-07-31T11:13:50;17.50;99.90
16846;DHT22;8539;53.188;8.696;2023-07-31T11:16:22;17.50;99.90
16846;DHT22;8539;53.188;8.696;2023-07-31T11:25:14;17.60;99.90
16846;DHT22;8539;53.188;8.696;2023-07-31T11:27:41;17.60;99.90
16846;DHT22;8539;53.188;8.696;2023-07-31T11:30:08;17.70;99.90
16846;DHT22;8539;53.188;8.696;2023-07-31T11:32:36;17.70;99.90
16846;DHT22;8539;53.188;8.696;2023-07-31T11:45:21;17.70;99.90
16846;DHT22;8539;53.188;8.696;2023-07-31T11:47:50;17.70;99.90
16846;DHT22;8539;53.188;8.696;2023-07-31T11:50:16;17.70;99.90
16846;DHT22;8539;53.188;8.696;2023-07-31T11:52:44;17.70;99.90
16846;DHT22;8539;53.188;8.696;2023-07-31T11:55:11;17.70;99.90
16846;DHT22;8539;53.188;8.696;2023-07-31T11:57:40;17.70;99.90
16846;DHT22;8539;53.188;8.696;2023-07-31T12:00:08;17.70;99.90
16846;DHT22;8539;53.188;8.696;2023-07-31T12:02:37;17.70;99.90
16846;DHT22;8539;53.188;8.696;2023-07-31T12:05:09;17.70;99.90
16846;DHT22;8539;53.188;8.696;2023-07-31T12:07:49;17.70;99.90
16846;DHT22;8539;53.188;8.696;2023-07-31T12:10:32;17.70;99.90
16846;DHT22;8539;53.188;8.696;2023-07-31T12:13:00;17.70;99.90
16846;DHT22;8539;53.188;8.696;2023-07-31T12:15:54;17.70;99.90
16846;DHT22;8539;53.188;8.696;2023-07-31T12:18:21;17.70;99.90
16846;DHT22;8539;53.188;8.696;2023-07-31T12:20:55;17.70;99.90
16846;DHT22;8539;53.188;8.696;2023-07-31T12:23:24;17.70;99.90
16846;DHT22;8539;53.188;8.696;2023-07-31T12:26:03;17.70;99.90
16846;DHT22;8539;53.188;8.696;2023-07-31T12:28:29;17.80;99.90
16846;DHT22;8539;53.188;8.696;2023-07-31T12:31:00;17.80;99.90
16846;DHT22;8539;53.188;8.696;2023-07-31T12:33:34;17.80;99.90
16846;DHT22;8539;53.188;8.696;2023-07-31T12:36:02;17.90;99.90
16846;DHT22;8539;53.188;8.696;2023-07-31T12:38:30;17.90;99.90
16846;DHT22;8539;53.188;8.696;2023-07-31T12:40:56;18.00;99.90
16846;DHT22;8539;53.188;8.696;2023-07-31T12:43:22;18.00;99.90
16846;DHT22;8539;53.188;8.696;2023-07-31T12:45:49;18.00;99.90
16846;DHT22;8539;53.188;8.696;2023-07-31T12:48:15;18.00;99.90
16846;DHT22;8539;53.188;8.696;2023-07-31T12:50:41;18.00;99.90
16846;DHT22;8539;53.188;8.696;2023-07-31T12:53:07;18.00;99.90
16846;DHT22;8539;53.188;8.696;2023-07-31T12:55:33;18.10;99.90
16846;DHT22;8539;53.188;8.696;2023-07-31T12:58:00;18.00;99.90
16846;DHT22;8539;53.188;8.696;2023-07-31T13:00:27;18.10;99.90
16846;DHT22;8539;53.188;8.696;2023-07-31T13:02:53;18.10;99.90
16846;DHT22;8539;53.188;8.696;2023-07-31T13:05:19;18.10;99.90
16846;DHT22;8539;53.188;8.696;2023-07-31T13:07:48;18.10;99.90
16846;DHT22;8539;53.188;8.696;2023-07-31T13:10:14;18.10;99.90
16846;DHT22;8539;53.188;8.696;2023-07-31T13:12:40;18.10;99.90
16846;DHT22;8539;53.188;8.696;2023-07-31T13:15:07;18.10;99.90
16846;DHT22;8539;53.188;8.696;2023-07-31T13:17:33;18.10;99.90
16846;DHT22;8539;53.188;8.696;2023-07-31T13:19:59;18.20;99.90
16846;DHT22;8539;53.188;8.696;2023-07-31T13:22:26;18.20;99.90
16846;DHT22;8539;53.188;8.696;2023-07-31T13:24:52;18.20;99.90
16846;DHT22;8539;53.188;8.696;2023-07-31T13:27:18;18.20;99.90
16846;DHT22;8539;53.188;8.696;2023-07-31T13:29:48;18.20;99.90
16846;DHT22;8539;53.188;8.696;2023-07-31T13:32:16;18.20;99.90
16846;DHT22;8539;53.188;8.696;2023-07-31T13:34:43;18.10;99.90
16846;DHT22;8539;53.188;8.696;2023-07-31T13:37:09;18.10;99.90
16846;DHT22;8539;53.188;8.696;2023-07-31T13:39:35;18.10;99.90
16846;DHT22;8539;53.188;8.696;2023-07-31T13:42:05;18.10;99.90
16846;DHT22;8539;53.188;8.696;2023-07-31T13:44:35;18.10;99.90
16846;DHT22;8539;53.188;8.696;2023-07-31T13:47:02;18.10;99.90
16846;DHT22;8539;53.188;8.696;2023-07-31T13:49:29;18.10;99.90
16846;DHT22;8539;53.188;8.696;2023-07-31T13:51:55;18.10;99.90
16846;DHT22;8539;53.188;8.696;2023-07-31T13:54:22;18.10;99.90
16846;DHT22;8539;53.188;8.696;2023-07-31T13:56:48;18.10;99.90
16846;DHT22;8539;53.188;8.696;2023-07-31T13:59:15;18.10;99.90
16846;DHT22;8539;53.188;8.696;2023-07-31T14:01:43;18.00;99.90
16846;DHT22;8539;53.188;8.696;2023-07-31T14:04:10;18.00;99.90
16846;DHT22;8539;53.188;8.696;2023-07-31T14:06:36;18.00;99.90
16846;DHT22;8539;53.188;8.696;2023-07-31T14:09:02;18.00;99.90
16846;DHT22;8539;53.188;8.696;2023-07-31T14:11:30;18.00;99.90
16846;DHT22;8539;53.188;8.696;2023-07-31T14:13:56;18.00;99.90
16846;DHT22;8539;53.188;8.696;2023-07-31T14:16:23;18.00;99.90
16846;DHT22;8539;53.188;8.696;2023-07-31T14:18:49;18.00;99.90
16846;DHT22;8539;53.188;8.696;2023-07-31T14:21:15;18.00;99.90
16846;DHT22;8539;53.188;8.696;2023-07-31T14:23:41;18.00;99.90
16846;DHT22;8539;53.188;8.696;2023-07-31T14:26:08;18.00;99.90
16846;DHT22;8539;53.188;8.696;2023-07-31T14:28:34;18.10;99.90
16846;DHT22;8539;53.188;8.696;2023-07-31T14:31:00;18.00;99.90
16846;DHT22;8539;53.188;8.696;2023-07-31T14:33:26;18.10;99.90
16846;DHT22;8539;53.188;8.696;2023-07-31T14:35:52;18.00;99.90
16846;DHT22;8539;53.188;8.696;2023-07-31T14:38:19;18.00;99.90
16846;DHT22;8539;53.188;8.696;2023-07-31T14:40:45;18.00;99.90
16846;DHT22;8539;53.188;8.696;2023-07-31T14:43:11;18.00;99.90
16846;DHT22;8539;53.188;8.696;2023-07-31T14:45:37;18.00;99.90
16846;DHT22;8539;53.188;8.696;2023-07-31T14:48:04;17.90;99.90
16846;DHT22;8539;53.188;8.696;2023-07-31T14:50:30;17.90;99.90
16846;DHT22;8539;53.188;8.696;2023-07-31T14:52:57;17.90;99.90
16846;DHT22;8539;53.188;8.696;2023-07-31T14:55:23;17.90;99.90
16846;DHT22;8539;53.188;8.696;2023-07-31T14:57:49;17.80;99.90
16846;DHT22;8539;53.188;8.696;2023-07-31T15:00:15;17.80;99.90
16846;DHT22;8539;53.188;8.696;2023-07-31T15:02:41;17.80;99.90
16846;DHT22;8539;53.188;8.696;2023-07-31T15:05:07;17.80;99.90
16846;DHT22;8539;53.188;8.696;2023-07-31T15:07:34;17.90;99.90
16846;DHT22;8539;53.188;8.696;2023-07-31T15:10:01;18.00;99.90
16846;DHT22;8539;53.188;8.696;2023-07-31T15:12:27;18.10;99.90
16846;DHT22;8539;53.188;8.696;2023-07-31T15:14:53;18.10;99.90
16846;DHT22;8539;53.188;8.696;2023-07-31T15:17:20;18.20;99.90
16846;DHT22;8539;53.188;8.696;2023-07-31T15:19:46;18.20;99.90
16846;DHT22;8539;53.188;8.696;2023-07-31T15:22:12;18.30;99.90
16846;DHT22;8539;53.188;8.696;2023-07-31T15:24:38;18.30;99.90
16846;DHT22;8539;53.188;8.696;2023-07-31T15:27:05;18.30;99.90
16846;DHT22;8539;53.188;8.696;2023-07-31T15:29:31;18.40;99.90
16846;DHT22;8539;53.188;8.696;2023-07-31T15:31:59;18.40;99.90
16846;DHT22;8539;53.188;8.696;2023-07-31T15:34:25;18.40;99.90
16846;DHT22;8539;53.188;8.696;2023-07-31T15:36:51;18.40;99.90
16846;DHT22;8539;53.188;8.696;2023-07-31T15:39:17;18.50;99.90
16846;DHT22;8539;53.188;8.696;2023-07-31T15:41:43;18.50;99.90
16846;DHT22;8539;53.188;8.696;2023-07-31T15:44:09;18.50;99.90
16846;DHT22;8539;53.188;8.696;2023-07-31T15:46:36;18.50;99.90
16846;DHT22;8539;53.188;8.696;2023-07-31T15:49:02;18.50;99.90
16846;DHT22;8539;53.188;8.696;2023-07-31T15:51:28;18.50;99.90
16846;DHT22;8539;53.188;8.696;2023-07-31T15:53:54;18.60;99.90
16846;DHT22;8539;53.188;8.696;2023-07-31T15:56:20;18.50;99.90
16846;DHT22;8539;53.188;8.696;2023-07-31T15:58:47;18.50;99.90
16846;DHT22;8539;53.188;8.696;2023-07-31T16:01:13;18.50;99.90
16846;DHT22;8539;53.188;8.696;2023-07-31T16:03:39;18.50;99.90
16846;DHT22;8539;53.188;8.696;2023-07-31T16:06:05;18.50;99.90
16846;DHT22;8539;53.188;8.696;2023-07-31T16:08:31;18.50;99.90
16846;DHT22;8539;53.188;8.696;2023-07-31T16:10:58;18.50;99.90
16846;DHT22;8539;53.188;8.696;2023-07-31T16:13:24;18.50;99.90
16846;DHT22;8539;53.188;8.696;2023-07-31T16:15:50;18.50;99.90